Time;durP1;ratioP1;P1;durP2;ratioP2;P2;SDS_P1;SDS_P2;PMS_P1;PMS_P2;Temp;Humidity;BMP_temperature;BMP_pressure;BME280_temperature;BME280_humidity;BME280_pressure;Samples;Min_cycle;Max_cycle;Signal;HPM_P1;HPM_P2
2022/05/20 00:00:02;;;;;;;1.50;0.90;;;18.90;98.20;;;;;;5004811;28;20460;-76
2022/05/20 00:02:28;;;;;;;1.50;1.00;;;18.90;98.20;;;;;;4998111;28;20968;-77
2022/05/20 00:04:55;;;;;;;1.50;0.90;;;18.90;98.20;;;;;;4993685;28;20461;-76
2022/05/20 00:07:22;;;;;;;1.47;0.90;;;18.80;98.20;;;;;;5002395;28;20472;-77
2022/05/20 00:09:50;;;;;;;1.50;0.90;;;18.80;98.20;;;;;;4998004;28;20644;-77
2022/05/20 00:12:17;;;;;;;1.50;1.00;;;18.80;98.20;;;;;;4985782;28;20485;-76
2022/05/20 00:14:44;;;;;;;1.47;0.90;;;18.80;98.20;;;;;;4991834;28;21020;-76
2022/05/20 00:17:11;;;;;;;1.50;0.90;;;18.90;98.20;;;;;;4997003;28;20472;-77
2022/05/20 00:19:38;;;;;;;1.43;0.90;;;18.80;98.20;;;;;;4990788;28;20485;-76
2022/05/20 00:22:06;;;;;;;1.50;0.90;;;18.80;98.20;;;;;;4996404;28;20819;-77
2022/05/20 00:24:33;;;;;;;1.50;0.90;;;18.80;98.20;;;;;;4991292;28;20497;-77
2022/05/20 00:27:01;;;;;;;1.40;0.90;;;18.80;98.20;;;;;;4998245;28;20811;-76
2022/05/20 00:29:28;;;;;;;1.50;1.00;;;18.80;98.20;;;;;;4990186;28;20814;-77
2022/05/20 00:31:55;;;;;;;1.47;0.90;;;18.70;98.20;;;;;;4997379;28;20736;-77
2022/05/20 00:34:22;;;;;;;1.50;0.90;;;18.70;98.20;;;;;;5000846;28;20468;-77
2022/05/20 00:36:49;;;;;;;1.47;0.90;;;18.80;98.20;;;;;;5006057;28;20504;-77
2022/05/20 00:39:15;;;;;;;1.47;0.90;;;18.80;98.20;;;;;;5003711;28;20512;-77
2022/05/20 00:41:43;;;;;;;1.47;0.90;;;18.80;98.20;;;;;;4996592;28;20476;-77
2022/05/20 00:44:11;;;;;;;1.47;0.90;;;18.80;98.20;;;;;;4990641;28;20500;-77
2022/05/20 00:46:38;;;;;;;1.47;0.90;;;18.80;98.20;;;;;;4997119;28;20465;-77
2022/05/20 00:49:10;;;;;;;1.50;0.90;;;18.80;98.20;;;;;;4990557;28;20876;-76
2022/05/20 00:51:41;;;;;;;1.50;0.93;;;18.80;98.20;;;;;;4995044;28;20748;-77
2022/05/20 00:54:11;;;;;;;1.43;0.90;;;18.80;98.20;;;;;;5001044;28;20456;-77
2022/05/20 00:56:42;;;;;;;1.50;0.90;;;18.80;98.20;;;;;;5001630;28;21001;-77
2022/05/20 00:59:17;;;;;;;1.50;0.90;;;18.80;98.20;;;;;;5005814;28;20483;-77
2022/05/20 01:01:47;;;;;;;1.50;1.00;;;18.80;98.20;;;;;;5002594;28;20491;-77
2022/05/20 01:04:15;;;;;;;1.50;0.90;;;18.80;98.20;;;;;;4990241;28;20496;-77
2022/05/20 01:06:42;;;;;;;1.47;0.90;;;18.80;98.20;;;;;;4991018;28;20563;-77
2022/05/20 01:09:08;;;;;;;1.50;0.90;;;18.80;98.20;;;;;;4987893;28;20841;-77
2022/05/20 01:11:37;;;;;;;1.50;1.00;;;18.80;98.20;;;;;;4978224;28;20921;-77
2022/05/20 01:14:04;;;;;;;1.47;0.90;;;18.80;98.20;;;;;;4993495;28;20467;-77
2022/05/20 01:16:33;;;;;;;1.40;0.90;;;18.80;98.20;;;;;;4998799;28;20475;-77
2022/05/20 01:19:05;;;;;;;1.50;1.20;;;18.70;98.20;;;;;;5001365;28;20480;-77
2022/05/20 01:21:32;;;;;;;1.50;0.93;;;18.70;98.20;;;;;;5004616;28;20901;-77
2022/05/20 01:24:03;;;;;;;1.50;0.90;;;18.70;98.20;;;;;;5000056;28;20499;-77
2022/05/20 01:26:30;;;;;;;1.50;0.90;;;18.70;98.20;;;;;;4986366;28;20989;-77
2022/05/20 01:28:56;;;;;;;1.43;0.90;;;18.60;98.20;;;;;;5004163;28;20499;-77
2022/05/20 01:31:24;;;;;;;1.50;0.90;;;18.60;98.20;;;;;;5000154;28;20468;-77
2022/05/20 01:33:52;;;;;;;1.50;0.90;;;18.60;98.20;;;;;;4996168;28;21107;-76
2022/05/20 01:36:22;;;;;;;1.43;0.90;;;18.60;98.20;;;;;;5004050;28;20460;-77
2022/05/20 01:38:50;;;;;;;1.47;0.90;;;18.60;98.20;;;;;;5003953;28;20503;-76
2022/05/20 01:41:24;;;;;;;1.50;0.90;;;18.50;98.20;;;;;;4999969;28;20472;-77
2022/05/20 01:43:58;;;;;;;1.50;0.90;;;18.50;98.20;;;;;;5000934;28;20493;-77
2022/05/20 01:46:33;;;;;;;1.40;0.90;;;18.50;98.20;;;;;;4982456;28;21019;-76
2022/05/20 01:49:15;;;;;;;1.40;0.90;;;18.50;98.20;;;;;;5001107;28;20962;-77
2022/05/20 01:51:46;;;;;;;1.50;0.90;;;18.50;98.20;;;;;;5003389;28;20465;-76
2022/05/20 01:54:18;;;;;;;1.47;0.90;;;18.40;98.20;;;;;;4994521;28;20461;-76
2022/05/20 01:56:51;;;;;;;1.47;0.90;;;18.40;98.20;;;;;;4995412;28;20473;-76
2022/05/20 01:59:23;;;;;;;1.50;0.90;;;18.40;98.20;;;;;;4990776;28;20485;-77
2022/05/20 02:01:54;;;;;;;1.50;0.97;;;18.40;98.20;;;;;;4996541;28;20611;-76
2022/05/20 02:04:28;;;;;;;1.50;0.90;;;18.40;98.20;;;;;;4988683;28;21022;-76
2022/05/20 02:07:00;;;;;;;1.50;0.90;;;18.40;98.20;;;;;;4999839;28;20476;-76
2022/05/20 02:09:32;;;;;;;1.60;1.20;;;18.40;98.20;;;;;;4993408;28;20492;-76
2022/05/20 02:12:02;;;;;;;1.50;0.90;;;18.40;98.20;;;;;;4991800;28;20467;-76
2022/05/20 02:14:35;;;;;;;1.70;1.50;;;18.40;98.20;;;;;;4989374;28;20827;-77
2022/05/20 02:17:07;;;;;;;1.50;1.10;;;18.40;98.20;;;;;;4995401;28;20867;-76
2022/05/20 02:19:37;;;;;;;1.50;0.90;;;18.40;98.20;;;;;;5006534;28;20569;-77
2022/05/20 02:22:08;;;;;;;1.50;0.90;;;18.40;98.20;;;;;;4999261;28;20477;-76
2022/05/20 02:24:39;;;;;;;1.50;0.90;;;18.40;98.20;;;;;;4988910;28;20524;-76
2022/05/20 02:27:12;;;;;;;1.50;0.90;;;18.40;98.20;;;;;;4994890;28;20472;-76
2022/05/20 02:29:43;;;;;;;1.50;0.90;;;18.30;98.20;;;;;;5005057;28;21008;-77
2022/05/20 02:32:16;;;;;;;1.50;1.00;;;18.30;98.20;;;;;;4994564;28;20830;-76
2022/05/20 02:34:42;;;;;;;1.50;0.90;;;18.30;98.20;;;;;;4988926;28;20465;-76
2022/05/20 02:37:24;;;;;;;1.50;0.90;;;18.30;98.20;;;;;;5004428;28;20857;-76
2022/05/20 02:39:52;;;;;;;1.50;1.00;;;18.30;98.20;;;;;;5028660;22;20870;-77
2022/05/20 02:42:20;;;;;;;1.50;0.90;;;18.20;98.20;;;;;;5012892;28;20482;-77
2022/05/20 02:44:47;;;;;;;1.50;0.97;;;18.20;98.20;;;;;;5012062;28;20868;-77
2022/05/20 02:47:14;;;;;;;1.50;0.90;;;18.10;98.20;;;;;;5011360;28;20471;-77
2022/05/20 02:49:41;;;;;;;1.47;0.90;;;18.10;98.20;;;;;;5014912;28;20491;-77
2022/05/20 02:52:09;;;;;;;1.50;0.90;;;18.10;98.20;;;;;;4997254;28;20497;-77
2022/05/20 02:54:36;;;;;;;1.50;0.90;;;18.00;98.20;;;;;;5002606;28;20476;-77
2022/05/20 02:57:06;;;;;;;1.50;0.90;;;18.00;98.20;;;;;;5013766;28;20493;-77
2022/05/20 03:05:04;;;;;;;1.50;1.00;;;17.90;98.20;;;;;;5011741;28;20537;-77
2022/05/20 03:07:30;;;;;;;1.50;1.00;;;17.90;98.20;;;;;;5028132;28;20460;-76
2022/05/20 03:09:57;;;;;;;1.50;1.03;;;17.90;98.20;;;;;;5012979;28;20483;-77
2022/05/20 03:12:26;;;;;;;1.50;0.90;;;17.80;98.20;;;;;;5008023;28;20460;-77
2022/05/20 03:14:54;;;;;;;1.50;0.90;;;17.80;98.20;;;;;;5011107;28;20548;-77
2022/05/20 03:17:21;;;;;;;3.63;3.33;;;17.80;98.20;;;;;;5015862;28;20645;-77
2022/05/20 03:19:48;;;;;;;1.50;0.90;;;17.80;98.20;;;;;;5008960;28;20893;-77
2022/05/20 03:22:16;;;;;;;1.50;1.00;;;17.80;98.20;;;;;;5013605;28;20464;-76
2022/05/20 03:24:43;;;;;;;1.50;1.00;;;17.80;98.20;;;;;;5008937;28;21068;-77
2022/05/20 03:27:10;;;;;;;1.50;0.90;;;17.80;98.20;;;;;;5021992;28;20492;-77
2022/05/20 03:29:37;;;;;;;1.50;1.00;;;17.90;98.20;;;;;;5019070;28;20496;-77
2022/05/20 03:32:09;;;;;;;1.50;0.93;;;17.90;98.20;;;;;;5017430;28;20850;-77
2022/05/20 03:34:36;;;;;;;1.50;0.90;;;17.90;98.20;;;;;;5022774;28;20458;-77
2022/05/20 03:37:03;;;;;;;1.50;0.90;;;17.90;98.20;;;;;;5028998;28;20520;-76
2022/05/20 03:39:31;;;;;;;1.50;0.90;;;17.90;98.20;;;;;;5026919;28;20502;-76
2022/05/20 03:41:59;;;;;;;1.50;1.00;;;18.00;98.20;;;;;;5018262;28;20517;-77
2022/05/20 03:44:27;;;;;;;1.50;1.00;;;18.00;98.20;;;;;;5035077;28;20476;-76
2022/05/20 03:46:58;;;;;;;1.50;0.90;;;18.00;98.20;;;;;;5014140;28;21011;-76
2022/05/20 03:49:29;;;;;;;1.50;1.07;;;18.00;98.20;;;;;;5010377;28;20488;-77
2022/05/20 03:51:58;;;;;;;1.50;0.90;;;18.00;98.20;;;;;;4998761;28;20525;-77
2022/05/20 03:54:27;;;;;;;1.47;0.93;;;18.00;98.20;;;;;;5028126;28;20471;-77
2022/05/20 03:56:53;;;;;;;1.50;0.90;;;18.00;98.20;;;;;;5001940;28;20499;-77
2022/05/20 03:59:20;;;;;;;1.43;0.90;;;18.00;98.20;;;;;;5021811;28;20480;-77
2022/05/20 04:02:00;;;;;;;1.43;0.90;;;18.00;98.20;;;;;;5018283;28;20463;-77
2022/05/20 04:04:31;;;;;;;1.43;0.90;;;18.00;98.20;;;;;;5035389;28;20508;-77
2022/05/20 04:06:59;;;;;;;1.50;0.90;;;18.00;98.20;;;;;;5031028;28;20832;-77
2022/05/20 04:09:26;;;;;;;1.50;0.90;;;18.00;98.20;;;;;;5012807;28;20484;-78
2022/05/20 04:11:55;;;;;;;1.47;0.90;;;18.10;98.20;;;;;;5013510;28;20467;-77
2022/05/20 04:14:23;;;;;;;1.47;0.90;;;18.10;98.20;;;;;;5019776;28;20468;-77
2022/05/20 04:16:55;;;;;;;1.50;1.00;;;18.10;98.20;;;;;;5010416;28;20464;-77
2022/05/20 04:19:23;;;;;;;1.50;0.90;;;18.10;98.20;;;;;;5019832;28;20507;-77
2022/05/20 04:21:52;;;;;;;1.50;1.00;;;18.10;98.20;;;;;;5022629;28;20467;-76
2022/05/20 04:24:19;;;;;;;1.50;1.00;;;18.10;98.20;;;;;;5026212;28;20514;-76
2022/05/20 04:26:45;;;;;;;1.40;0.90;;;18.10;98.20;;;;;;5026577;28;20844;-77
2022/05/20 04:29:12;;;;;;;1.50;0.90;;;18.20;98.20;;;;;;5010403;28;20860;-77
2022/05/20 04:31:44;;;;;;;1.43;0.90;;;18.20;98.20;;;;;;5014826;28;20471;-76
2022/05/20 04:34:12;;;;;;;1.47;0.90;;;18.20;98.20;;;;;;5006586;28;20489;-76
2022/05/20 04:36:39;;;;;;;1.50;0.90;;;18.20;98.20;;;;;;5010568;28;20975;-76
2022/05/20 04:39:08;;;;;;;1.50;0.90;;;18.20;98.20;;;;;;5021526;28;20497;-76
2022/05/20 04:47:08;;;;;;;1.50;0.90;;;18.10;98.20;;;;;;5006461;28;20459;-76
2022/05/20 04:49:38;;;;;;;1.50;0.90;;;18.10;98.20;;;;;;5007625;28;20517;-76
2022/05/20 04:52:06;;;;;;;1.43;0.90;;;18.10;98.20;;;;;;5000970;28;20546;-76
2022/05/20 04:54:52;;;;;;;1.50;0.90;;;18.20;98.20;;;;;;5011367;28;20460;-76
2022/05/20 04:57:26;;;;;;;1.50;1.00;;;18.20;98.20;;;;;;5017120;28;20541;-76
2022/05/20 04:59:54;;;;;;;1.50;0.90;;;18.20;98.20;;;;;;5011904;28;20587;-76
2022/05/20 05:02:21;;;;;;;1.50;0.90;;;18.30;98.20;;;;;;5007045;28;20580;-76
2022/05/20 05:04:48;;;;;;;1.47;0.90;;;18.30;98.20;;;;;;5016214;28;20494;-78
2022/05/20 05:07:15;;;;;;;1.50;1.00;;;18.30;98.20;;;;;;5023737;28;20953;-76
2022/05/20 05:09:45;;;;;;;1.50;0.90;;;18.40;98.20;;;;;;5021710;28;20971;-77
2022/05/20 05:12:13;;;;;;;1.50;1.00;;;18.40;98.20;;;;;;5012451;28;20467;-76
2022/05/20 05:14:42;;;;;;;1.50;0.90;;;18.40;98.20;;;;;;5016728;28;20559;-76
2022/05/20 05:17:11;;;;;;;1.50;0.90;;;18.40;98.20;;;;;;5018071;28;20941;-76
2022/05/20 05:19:41;;;;;;;1.50;0.90;;;18.50;98.20;;;;;;5020635;28;20505;-75
2022/05/20 05:22:09;;;;;;;1.50;0.90;;;18.40;98.20;;;;;;5010770;28;20497;-76
2022/05/20 05:24:37;;;;;;;1.50;0.90;;;18.40;98.20;;;;;;5021408;28;20576;-78
2022/05/20 05:27:06;;;;;;;1.50;0.90;;;18.40;98.20;;;;;;4991741;28;20840;-76
2022/05/20 05:29:38;;;;;;;1.43;0.90;;;18.50;98.20;;;;;;5017581;28;20484;-76
2022/05/20 05:32:06;;;;;;;1.50;0.90;;;18.60;98.20;;;;;;5017081;28;20566;-76
2022/05/20 05:34:34;;;;;;;1.50;1.00;;;18.70;98.20;;;;;;5019571;28;20468;-77
2022/05/20 05:37:04;;;;;;;1.50;0.90;;;18.70;98.20;;;;;;5022535;28;20469;-77
2022/05/20 05:39:32;;;;;;;1.50;0.90;;;18.60;98.20;;;;;;5024292;28;20495;-76
2022/05/20 05:42:00;;;;;;;1.50;0.90;;;18.70;98.20;;;;;;5002812;28;21046;-77
2022/05/20 05:44:28;;;;;;;1.80;1.20;;;18.70;98.20;;;;;;5006503;28;20475;-77
2022/05/20 05:46:55;;;;;;;1.50;1.10;;;18.80;98.20;;;;;;5007667;28;20530;-76
2022/05/20 05:49:26;;;;;;;1.50;0.90;;;18.90;98.20;;;;;;5015978;28;20488;-76
2022/05/20 05:51:54;;;;;;;1.50;0.93;;;19.10;98.20;;;;;;5005001;28;20472;-76
2022/05/20 05:54:22;;;;;;;1.50;0.90;;;19.30;98.20;;;;;;5017730;28;20510;-77
2022/05/20 05:56:50;;;;;;;1.50;0.90;;;19.50;98.20;;;;;;5013724;28;20467;-76
2022/05/20 05:59:17;;;;;;;1.50;0.90;;;19.60;98.20;;;;;;5020624;28;21048;-76
2022/05/20 06:01:45;;;;;;;1.50;1.00;;;19.80;98.20;;;;;;5016115;28;20474;-77
2022/05/20 06:04:12;;;;;;;1.50;0.90;;;20.00;98.20;;;;;;5008352;28;20476;-76
2022/05/20 06:06:39;;;;;;;1.50;0.90;;;20.00;98.20;;;;;;5012306;28;20580;-76
2022/05/20 06:09:08;;;;;;;1.50;0.90;;;20.00;98.20;;;;;;5014333;28;21056;-77
2022/05/20 06:11:46;;;;;;;1.50;0.90;;;20.10;98.20;;;;;;5013694;28;20983;-78
2022/05/20 06:14:19;;;;;;;1.50;0.97;;;20.30;98.20;;;;;;5014936;28;20528;-78
2022/05/20 06:16:48;;;;;;;1.50;0.90;;;20.30;98.20;;;;;;5015856;28;20491;-76
2022/05/20 06:19:15;;;;;;;1.50;0.93;;;20.40;98.20;;;;;;5015697;28;20483;-79
2022/05/20 06:21:43;;;;;;;1.50;0.90;;;20.60;98.20;;;;;;5019881;28;20845;-79
2022/05/20 06:24:10;;;;;;;1.50;0.90;;;20.80;98.20;;;;;;5024708;28;20907;-79
2022/05/20 06:26:42;;;;;;;1.50;1.10;;;21.10;98.20;;;;;;5020753;28;20493;-77
2022/05/20 06:29:10;;;;;;;1.50;0.90;;;21.40;98.20;;;;;;5009291;28;20514;-77
2022/05/20 06:31:46;;;;;;;1.50;0.90;;;21.60;97.40;;;;;;5018600;28;20509;-77
2022/05/20 06:34:18;;;;;;;1.50;0.90;;;21.60;97.70;;;;;;5015585;28;20613;-78
2022/05/20 06:39:51;;;;;;;1.50;1.10;;;21.70;97.80;;;;;;5024640;28;20486;-78
2022/05/20 06:42:20;;;;;;;2.73;1.77;;;21.90;97.30;;;;;;5012001;28;20470;-76
2022/05/20 06:44:47;;;;;;;1.50;0.90;;;22.20;96.80;;;;;;5015882;28;20478;-81
2022/05/20 06:47:15;;;;;;;1.50;0.90;;;22.50;95.50;;;;;;5017428;28;20995;-80
2022/05/20 06:49:44;;;;;;;1.53;1.00;;;22.60;95.50;;;;;;5013993;28;20628;-78
2022/05/20 06:52:11;;;;;;;1.50;0.90;;;22.50;95.30;;;;;;5017540;28;20535;-78
2022/05/20 06:54:42;;;;;;;1.50;0.90;;;22.40;95.90;;;;;;5016267;28;20521;-76
2022/05/20 06:57:09;;;;;;;1.50;0.90;;;22.50;95.70;;;;;;5018268;28;20658;-77
2022/05/20 06:59:38;;;;;;;1.50;0.90;;;22.60;96.00;;;;;;5021217;28;20588;-77
2022/05/20 07:02:07;;;;;;;1.50;0.90;;;23.00;95.20;;;;;;5020166;28;20928;-78
2022/05/20 07:04:36;;;;;;;1.50;0.90;;;23.10;94.30;;;;;;5016319;28;20517;-77
2022/05/20 07:07:06;;;;;;;1.50;0.90;;;23.20;93.70;;;;;;5034936;28;20489;-78
2022/05/20 07:09:34;;;;;;;1.93;1.30;;;23.00;94.30;;;;;;5024777;28;20805;-79
2022/05/20 07:12:02;;;;;;;1.60;1.20;;;23.00;94.60;;;;;;5024302;28;20482;-79
2022/05/20 07:14:29;;;;;;;1.50;1.00;;;22.80;95.20;;;;;;5014004;28;20542;-78
2022/05/20 07:16:59;;;;;;;1.50;0.90;;;22.70;96.00;;;;;;5032912;28;20529;-79
2022/05/20 07:19:25;;;;;;;1.50;0.90;;;22.90;95.70;;;;;;5023394;28;20514;-79
2022/05/20 07:21:52;;;;;;;1.83;1.73;;;22.80;95.20;;;;;;5018622;28;20478;-80
2022/05/20 07:24:22;;;;;;;1.50;0.90;;;22.70;95.70;;;;;;5021261;28;20541;-79
2022/05/20 07:26:49;;;;;;;1.80;1.50;;;22.80;95.60;;;;;;5018169;28;20470;-80
2022/05/20 07:29:16;;;;;;;1.60;1.20;;;22.80;94.60;;;;;;5028378;28;20491;-83
2022/05/20 07:31:43;;;;;;;1.50;1.00;;;22.70;95.60;;;;;;5016341;28;20464;-78
2022/05/20 07:34:10;;;;;;;1.50;0.90;;;22.70;96.10;;;;;;5012750;28;20475;-78
2022/05/20 07:36:37;;;;;;;1.50;0.90;;;22.90;96.40;;;;;;5025577;28;20486;-77
2022/05/20 07:39:04;;;;;;;1.50;0.90;;;23.20;96.10;;;;;;5021515;28;20923;-78
2022/05/20 07:41:32;;;;;;;1.50;0.90;;;23.40;94.90;;;;;;5020457;28;20468;-78
2022/05/20 07:43:59;;;;;;;1.50;1.00;;;23.40;94.60;;;;;;5012534;28;20471;-79
2022/05/20 07:46:25;;;;;;;1.60;1.40;;;23.40;95.00;;;;;;5021019;28;20791;-78
2022/05/20 07:48:52;;;;;;;1.60;1.17;;;23.50;94.30;;;;;;5025587;28;20487;-77
2022/05/20 07:51:22;;;;;;;1.50;0.90;;;23.70;93.80;;;;;;5014298;28;20463;-79
2022/05/20 07:53:54;;;;;;;1.50;0.90;;;24.10;93.10;;;;;;5025326;28;20463;-79
2022/05/20 07:56:25;;;;;;;1.60;1.20;;;24.10;92.30;;;;;;5009496;28;20545;-79
2022/05/20 07:58:58;;;;;;;1.80;1.10;;;24.20;92.50;;;;;;5000730;28;21181;-79
2022/05/20 08:01:30;;;;;;;1.50;1.10;;;24.30;93.50;;;;;;5015120;28;20471;-78
2022/05/20 08:06:45;;;;;;;1.50;0.90;;;24.80;91.60;;;;;;5022549;28;20459;-80
2022/05/20 08:09:12;;;;;;;1.60;1.10;;;24.80;91.10;;;;;;5026183;28;20491;-78
2022/05/20 08:11:41;;;;;;;1.60;1.10;;;24.80;90.90;;;;;;5014290;28;20471;-78
2022/05/20 08:14:09;;;;;;;1.50;0.90;;;24.70;90.70;;;;;;5021167;28;20491;-76
2022/05/20 08:16:37;;;;;;;1.50;0.87;;;24.70;91.70;;;;;;5017175;28;20491;-79
2022/05/20 08:19:05;;;;;;;1.50;0.90;;;24.60;91.50;;;;;;5021032;28;21087;-79
2022/05/20 08:21:32;;;;;;;1.50;1.00;;;24.60;92.10;;;;;;5012054;28;21074;-78
2022/05/20 08:23:59;;;;;;;1.47;0.80;;;24.50;92.60;;;;;;5028193;28;20526;-80
2022/05/20 08:26:26;;;;;;;1.47;0.80;;;24.40;93.30;;;;;;5012941;28;20464;-78
2022/05/20 08:28:53;;;;;;;1.50;0.90;;;24.30;92.70;;;;;;5019587;28;21057;-78
2022/05/20 08:31:22;;;;;;;1.47;0.90;;;24.10;93.40;;;;;;5014871;28;20472;-78
2022/05/20 08:33:50;;;;;;;1.50;0.90;;;23.90;93.80;;;;;;5011598;28;20468;-78
2022/05/20 08:36:18;;;;;;;3.77;2.83;;;23.80;94.40;;;;;;5024826;28;20579;-78
2022/05/20 08:38:46;;;;;;;1.60;1.37;;;23.50;95.40;;;;;;5051282;23;20499;-77
2022/05/20 08:41:18;;;;;;;2.00;1.20;;;23.40;95.60;;;;;;5045591;28;20602;-76
2022/05/20 08:43:45;;;;;;;1.60;1.00;;;23.40;95.60;;;;;;5044484;28;20466;-75
2022/05/20 08:46:12;;;;;;;1.50;1.00;;;23.20;95.90;;;;;;5037380;28;20485;-79
2022/05/20 08:48:43;;;;;;;1.50;0.90;;;23.00;96.50;;;;;;5046144;28;20466;-78
2022/05/20 08:51:11;;;;;;;1.50;0.80;;;23.00;97.00;;;;;;5039078;28;20475;-77
2022/05/20 08:53:42;;;;;;;1.83;1.60;;;22.90;97.80;;;;;;5028274;28;20463;-76
2022/05/20 08:56:12;;;;;;;1.47;0.80;;;23.00;97.80;;;;;;5027789;28;20821;-75
2022/05/20 08:58:44;;;;;;;1.50;0.90;;;23.30;96.60;;;;;;5040264;28;20493;-77
2022/05/20 09:01:11;;;;;;;1.60;1.10;;;23.70;95.20;;;;;;5027449;28;20471;-76
2022/05/20 09:03:38;;;;;;;1.50;0.90;;;23.80;94.40;;;;;;5028171;28;20462;-77
2022/05/20 09:06:10;;;;;;;1.70;1.60;;;23.80;94.20;;;;;;5016238;28;20463;-78
2022/05/20 09:08:37;;;;;;;1.50;1.10;;;23.80;94.60;;;;;;5037645;28;20471;-77
2022/05/20 09:11:06;;;;;;;1.50;0.90;;;24.00;94.90;;;;;;5019346;28;20463;-78
2022/05/20 09:16:22;;;;;;;1.67;1.50;;;24.60;92.50;;;;;;5026656;28;20510;-77
2022/05/20 09:18:51;;;;;;;1.50;0.90;;;24.80;92.30;;;;;;5031107;28;20716;-76
2022/05/20 09:21:33;;;;;;;1.63;1.53;;;24.80;92.20;;;;;;5024537;28;20493;-77
2022/05/20 09:24:04;;;;;;;1.50;0.83;;;24.60;92.50;;;;;;5023641;28;20475;-75
2022/05/20 09:26:35;;;;;;;1.50;0.90;;;24.70;92.80;;;;;;5033652;28;20459;-77
2022/05/20 09:29:08;;;;;;;1.77;1.50;;;24.80;92.30;;;;;;5025132;28;21036;-77
2022/05/20 09:31:41;;;;;;;1.47;0.90;;;24.70;92.50;;;;;;5034785;28;20473;-79
2022/05/20 09:34:14;;;;;;;1.50;0.93;;;24.90;91.90;;;;;;5038501;28;20486;-77
2022/05/20 09:36:49;;;;;;;1.50;1.00;;;25.00;91.60;;;;;;5028398;28;20493;-78
2022/05/20 09:39:22;;;;;;;1.50;0.93;;;25.10;92.20;;;;;;5023402;28;20510;-77
2022/05/20 09:41:54;;;;;;;1.50;0.93;;;25.40;91.70;;;;;;5030247;28;20855;-77
2022/05/20 09:44:24;;;;;;;1.50;0.90;;;25.70;90.40;;;;;;5023898;28;20466;-77
2022/05/20 09:46:54;;;;;;;1.50;0.87;;;25.80;89.40;;;;;;5025561;28;20521;-78
2022/05/20 09:49:35;;;;;;;1.80;1.40;;;26.10;89.60;;;;;;5034028;28;20872;-77
2022/05/20 09:52:04;;;;;;;3.30;3.10;;;26.40;88.80;;;;;;5032029;28;20466;-77
2022/05/20 09:54:33;;;;;;;1.47;0.80;;;26.40;88.20;;;;;;5025114;28;20565;-77
2022/05/20 09:57:06;;;;;;;1.50;0.90;;;26.50;88.40;;;;;;5025518;28;20491;-77
2022/05/20 09:59:47;;;;;;;1.50;0.80;;;26.90;88.30;;;;;;5037899;28;20579;-77
2022/05/20 10:02:23;;;;;;;1.63;1.20;;;27.30;86.10;;;;;;5018187;28;20531;-77
2022/05/20 10:05:04;;;;;;;1.50;0.90;;;27.30;85.60;;;;;;5035312;28;20789;-76
2022/05/20 10:07:57;;;;;;;1.50;0.80;;;27.20;85.70;;;;;;5022038;28;20487;-77
2022/05/20 10:10:34;;;;;;;1.50;0.90;;;27.00;86.70;;;;;;5030271;28;20486;-77
2022/05/20 10:13:03;;;;;;;1.80;1.07;;;27.30;87.60;;;;;;5024665;28;20502;-77
2022/05/20 10:15:34;;;;;;;1.50;1.00;;;27.60;85.40;;;;;;5024417;28;20936;-78
2022/05/20 10:18:10;;;;;;;1.50;0.80;;;27.60;85.00;;;;;;5022508;28;20899;-77
2022/05/20 10:20:43;;;;;;;1.47;0.80;;;27.50;85.80;;;;;;5023609;28;20485;-77
2022/05/20 10:23:16;;;;;;;1.47;0.80;;;27.30;85.50;;;;;;5039678;28;20986;-77
2022/05/20 10:25:55;;;;;;;1.50;0.90;;;27.50;85.10;;;;;;5032829;28;20478;-77
2022/05/20 10:34:07;;;;;;;1.40;0.80;;;27.40;84.50;;;;;;5018346;28;20978;-77
2022/05/20 10:36:45;;;;;;;1.50;1.00;;;27.60;84.50;;;;;;5020390;28;20497;-77
2022/05/20 10:39:25;;;;;;;1.47;0.80;;;27.80;84.60;;;;;;5021712;28;20492;-77
2022/05/20 10:42:05;;;;;;;3.10;2.60;;;27.70;82.90;;;;;;5026418;28;20472;-77
2022/05/20 10:50:49;;;;;;;1.43;0.80;;;28.00;84.40;;;;;;5015718;28;20671;-78
2022/05/20 10:53:22;;;;;;;1.50;0.80;;;28.10;83.80;;;;;;5033223;28;20465;-77
2022/05/20 10:56:02;;;;;;;1.47;0.80;;;28.20;83.40;;;;;;5044537;28;20473;-77
2022/05/20 10:59:02;;;;;;;1.43;0.80;;;28.30;83.20;;;;;;5032465;28;20466;-77
2022/05/20 11:01:41;;;;;;;1.50;0.80;;;28.00;83.20;;;;;;5036574;28;20489;-77
2022/05/20 11:04:23;;;;;;;1.47;0.80;;;27.80;84.60;;;;;;5038603;28;20465;-77
2022/05/20 11:07:32;;;;;;;1.60;1.20;;;27.70;84.50;;;;;;5031283;28;20489;-77
2022/05/20 11:10:11;;;;;;;1.50;0.80;;;27.80;84.70;;;;;;5011030;28;20490;-77
2022/05/20 11:12:47;;;;;;;1.50;1.07;;;27.70;84.50;;;;;;5030620;28;20485;-77
2022/05/20 11:15:27;;;;;;;1.43;0.80;;;27.60;85.00;;;;;;5040962;28;20461;-78
2022/05/20 11:18:20;;;;;;;1.47;0.80;;;27.50;85.20;;;;;;5026377;28;21040;-76
2022/05/20 11:21:04;;;;;;;1.67;1.17;;;27.30;86.00;;;;;;5024663;28;20486;-77
2022/05/20 11:23:41;;;;;;;1.50;1.10;;;27.30;86.20;;;;;;5024472;28;20462;-77
2022/05/20 11:26:28;;;;;;;1.50;0.80;;;27.30;85.90;;;;;;5020623;28;20489;-77
2022/05/20 11:29:24;;;;;;;1.50;1.10;;;27.60;85.50;;;;;;5025407;28;20494;-77
2022/05/20 11:31:55;;;;;;;1.50;0.83;;;28.00;84.50;;;;;;5021434;28;20478;-77
2022/05/20 11:34:54;;;;;;;1.90;1.00;;;28.30;83.20;;;;;;5028308;28;21024;-75
2022/05/20 11:37:39;;;;;;;1.47;0.80;;;28.30;83.20;;;;;;5023932;28;21058;-76
2022/05/20 11:40:30;;;;;;;1.47;0.80;;;28.40;82.90;;;;;;5021936;28;20580;-75
2022/05/20 11:43:21;;;;;;;1.47;0.80;;;28.20;82.30;;;;;;5025421;28;20477;-76
2022/05/20 11:46:00;;;;;;;1.47;0.80;;;27.80;83.60;;;;;;5029038;28;20473;-76
2022/05/20 11:49:00;;;;;;;1.50;0.80;;;27.70;84.10;;;;;;5037061;28;20469;-74
2022/05/20 11:51:59;;;;;;;2.03;1.83;;;27.70;84.90;;;;;;5022073;28;20481;-76
2022/05/20 11:54:31;;;;;;;1.47;0.80;;;27.70;85.30;;;;;;5033444;28;20477;-76
2022/05/20 11:57:02;;;;;;;1.47;0.90;;;27.90;84.50;;;;;;5034995;28;20497;-76
2022/05/20 11:59:32;;;;;;;1.47;0.80;;;27.90;84.80;;;;;;5017600;28;20548;-75
2022/05/20 12:02:05;;;;;;;1.47;0.80;;;27.70;84.70;;;;;;5025316;28;20553;-76
2022/05/20 12:04:34;;;;;;;1.50;0.90;;;27.50;86.00;;;;;;5019454;28;20475;-75
2022/05/20 12:07:05;;;;;;;1.50;0.80;;;27.50;86.40;;;;;;5022570;28;20463;-75
2022/05/20 12:09:36;;;;;;;1.50;0.90;;;27.40;86.10;;;;;;5022788;28;20866;-76
2022/05/20 12:12:14;;;;;;;1.50;0.90;;;27.30;86.40;;;;;;5019930;28;20485;-75
2022/05/20 12:14:59;;;;;;;1.47;0.80;;;27.20;87.00;;;;;;5026393;28;20471;-75
2022/05/20 12:17:32;;;;;;;1.50;0.90;;;27.00;87.80;;;;;;5021883;28;20490;-75
2022/05/20 12:25:54;;;;;;;1.50;0.80;;;26.70;88.80;;;;;;5028547;28;20457;-75
2022/05/20 12:28:33;;;;;;;1.50;0.90;;;26.60;90.00;;;;;;5029790;28;20854;-75
2022/05/20 12:31:09;;;;;;;1.47;0.90;;;26.40;90.70;;;;;;5022151;28;20941;-74
2022/05/20 12:33:54;;;;;;;2.47;1.97;;;26.10;91.30;;;;;;5026122;28;20459;-73
2022/05/20 12:36:33;;;;;;;1.50;0.90;;;25.90;93.10;;;;;;5024423;28;20471;-74
2022/05/20 12:39:18;;;;;;;1.60;1.27;;;25.70;93.60;;;;;;5022639;28;20578;-74
2022/05/20 12:41:58;;;;;;;1.50;0.90;;;25.70;94.70;;;;;;5021282;28;20849;-74
2022/05/20 12:44:36;;;;;;;1.47;0.90;;;25.60;95.10;;;;;;5029191;28;20997;-75
2022/05/20 12:47:27;;;;;;;1.50;1.00;;;25.50;95.60;;;;;;5025687;28;20465;-76
2022/05/20 12:50:05;;;;;;;1.47;0.83;;;25.40;96.10;;;;;;5020228;28;20487;-73
2022/05/20 12:52:34;;;;;;;2.23;2.03;;;25.20;97.80;;;;;;5025395;28;20470;-74
2022/05/20 12:55:13;;;;;;;1.50;0.90;;;25.00;98.20;;;;;;5028744;28;20468;-72
2022/05/20 12:57:50;;;;;;;1.50;0.90;;;24.70;98.20;;;;;;5024341;28;20896;-72
2022/05/20 13:00:24;;;;;;;1.50;0.90;;;24.30;98.20;;;;;;5033916;28;20865;-73
2022/05/20 13:02:56;;;;;;;1.50;0.83;;;24.10;98.20;;;;;;5026120;28;20473;-73
2022/05/20 13:05:29;;;;;;;1.50;0.90;;;23.90;98.20;;;;;;5024548;28;20470;-72
2022/05/20 13:07:58;;;;;;;1.70;1.30;;;23.80;98.20;;;;;;5026452;28;20459;-73
2022/05/20 13:10:28;;;;;;;1.50;0.90;;;23.60;98.20;;;;;;5029137;28;20491;-72
2022/05/20 13:12:59;;;;;;;1.60;1.30;;;23.40;98.20;;;;;;5029946;28;20490;-72
2022/05/20 13:15:25;;;;;;;1.50;0.90;;;23.30;98.20;;;;;;5031606;28;20478;-72
2022/05/20 13:17:59;;;;;;;1.50;0.90;;;23.30;98.20;;;;;;5037039;28;20517;-72
2022/05/20 13:20:29;;;;;;;1.50;0.90;;;23.30;98.20;;;;;;5034767;28;20483;-72
2022/05/20 13:22:59;;;;;;;1.50;0.90;;;23.40;98.20;;;;;;5034669;28;20696;-72
2022/05/20 13:25:26;;;;;;;1.50;0.90;;;23.40;98.20;;;;;;5036660;28;20459;-72
2022/05/20 13:27:53;;;;;;;1.50;0.90;;;23.40;98.20;;;;;;5026232;28;20482;-73
2022/05/20 13:30:23;;;;;;;1.50;0.90;;;23.50;98.20;;;;;;5035504;28;21157;-73
2022/05/20 13:32:50;;;;;;;1.50;1.00;;;23.50;98.20;;;;;;5043225;28;20663;-74
2022/05/20 13:35:17;;;;;;;1.50;1.20;;;23.30;98.20;;;;;;5034859;28;20470;-74
2022/05/20 13:37:49;;;;;;;1.50;1.10;;;23.30;98.20;;;;;;5028126;28;21013;-73
2022/05/20 13:40:20;;;;;;;1.50;0.90;;;23.50;98.20;;;;;;5023945;28;20491;-72
2022/05/20 13:42:52;;;;;;;1.50;0.90;;;23.80;98.20;;;;;;5024512;28;20475;-73
2022/05/20 13:45:20;;;;;;;1.50;0.90;;;24.20;98.20;;;;;;5035120;28;20470;-74